Time;durP1;ratioP1;P1;durP2;ratioP2;P2;SDS_P1;SDS_P2;PMS_P1;PMS_P2;Temp;Humidity;BMP_temperature;BMP_pressure;BME280_temperature;BME280_humidity;BME280_pressure;Samples;Min_cycle;Max_cycle;Signal;HPM_P1;HPM_P2
2023/10/25 00:00:52;;;;;;;;;;;;;;;;;;4934284;28;19997;-68
2023/10/25 00:03:18;;;;;;;;;;;;;;;;;;4938420;28;19930;-67
2023/10/25 00:05:44;;;;;;;;;;;;;;;;;;4938342;28;19918;-67
2023/10/25 00:08:10;;;;;;;;;;;;;;;;;;4941408;28;19961;-68
2023/10/25 00:10:36;;;;;;;;;;;;;;;;;;4936029;28;20346;-67
2023/10/25 00:13:02;;;;;;;;;;;;;;;;;;4941633;28;19953;-68
2023/10/25 00:15:28;;;;;;;;;;;;;;;;;;4924530;28;20299;-67
2023/10/25 00:17:54;;;;;;;;;;;;;;;;;;4944969;28;20325;-68
2023/10/25 00:20:20;;;;;;;;;;;;;;;;;;4908788;28;19922;-67
2023/10/25 00:22:46;;;;;;;;;;;;;;;;;;4902262;28;20564;-68
2023/10/25 00:25:12;;;;;;;;;;;;;;;;;;4909205;28;20183;-67
2023/10/25 00:27:38;;;;;;;;;;;;;;;;;;4899238;28;19918;-67
2023/10/25 00:30:03;;;;;;;;;;;;;;;;;;4905707;28;19926;-67
2023/10/25 00:32:29;;;;;;;;;;;;;;;;;;4901948;28;20443;-67
2023/10/25 00:34:55;;;;;;;;;;;;;;;;;;4904952;28;19960;-67
2023/10/25 00:37:21;;;;;;;;;;;;;;;;;;4909079;28;20237;-67
2023/10/25 00:39:48;;;;;;;;;;;;;;;;;;4903946;28;19969;-67
2023/10/25 00:42:13;;;;;;;;;;;;;;;;;;4906404;28;20603;-68
2023/10/25 00:44:39;;;;;;;;;;;;;;;;;;4902683;28;19914;-67
2023/10/25 00:47:06;;;;;;;;;;;;;;;;;;4905294;28;19914;-67
2023/10/25 00:49:32;;;;;;;;;;;;;;;;;;4906585;28;20369;-68
2023/10/25 00:51:58;;;;;;;;;;;;;;;;;;4908093;28;19921;-69
2023/10/25 00:54:23;;;;;;;;;;;;;;;;;;4906985;28;20476;-68
2023/10/25 00:56:50;;;;;;;;;;;;;;;;;;4909392;28;19965;-68
2023/10/25 00:59:16;;;;;;;;;;;;;;;;;;4942195;28;20062;-68
2023/10/25 01:01:41;;;;;;;;;;;;;;;;;;4944587;28;19922;-68
2023/10/25 01:04:07;;;;;;;;;;;;;;;;;;4946180;28;20408;-68
2023/10/25 01:06:33;;;;;;;;;;;;;;;;;;4944733;28;19913;-68
2023/10/25 01:08:59;;;;;;;;;;;;;;;;;;4948096;28;20681;-67
2023/10/25 01:11:25;;;;;;;;;;;;;;;;;;4928847;28;19936;-68
2023/10/25 01:13:51;;;;;;;;;;;;;;;;;;4943661;28;19956;-67
2023/10/25 01:16:17;;;;;;;;;;;;;;;;;;4941678;28;19921;-68
2023/10/25 01:18:43;;;;;;;;;;;;;;;;;;4926879;28;19914;-68
2023/10/25 01:21:09;;;;;;;;;;;;;;;;;;4941683;28;19914;-68
2023/10/25 01:23:35;;;;;;;;;;;;;;;;;;4939766;28;20312;-68
2023/10/25 01:26:01;;;;;;;;;;;;;;;;;;4947560;28;19991;-68
2023/10/25 01:28:27;;;;;;;;;;;;;;;;;;4941004;28;20562;-70
2023/10/25 01:30:53;;;;;;;;;;;;;;;;;;4945441;28;20028;-68
2023/10/25 01:33:19;;;;;;;;;;;;;;;;;;4942153;28;19949;-68
2023/10/25 01:35:45;;;;;;;;;;;;;;;;;;4926802;28;21877;-68
2023/10/25 01:38:11;;;;;;;;;;;;;;;;;;4943830;28;19918;-68
2023/10/25 01:40:37;;;;;;;;;;;;;;;;;;4941189;28;19925;-68
2023/10/25 01:43:03;;;;;;;;;;;;;;;;;;4945101;28;19918;-68
2023/10/25 01:45:30;;;;;;;;;;;;;;;;;;4927482;28;19914;-68
2023/10/25 01:47:56;;;;;;;;;;;;;;;;;;4943682;28;20077;-68
2023/10/25 01:50:22;;;;;;;;;;;;;;;;;;4939090;28;20028;-68
2023/10/25 01:52:48;;;;;;;;;;;;;;;;;;4942571;28;19914;-68
2023/10/25 01:55:14;;;;;;;;;;;;;;;;;;4926002;28;20380;-68
2023/10/25 01:57:40;;;;;;;;;;;;;;;;;;4925831;28;20909;-67
2023/10/25 02:00:09;;;;;;;;;;;;;;;;;;4942439;28;19925;-67
2023/10/25 02:02:35;;;;;;;;;;;;;;;;;;4925216;28;19968;-67
2023/10/25 02:05:01;;;;;;;;;;;;;;;;;;4942291;28;19922;-67
2023/10/25 02:07:27;;;;;;;;;;;;;;;;;;4922782;28;20036;-67
2023/10/25 02:09:53;;;;;;;;;;;;;;;;;;4943747;28;19985;-68
2023/10/25 02:12:19;;;;;;;;;;;;;;;;;;4928788;28;20443;-67
2023/10/25 02:14:45;;;;;;;;;;;;;;;;;;4940403;28;19914;-67
2023/10/25 02:17:10;;;;;;;;;;;;;;;;;;4941958;28;19917;-67
2023/10/25 02:19:38;;;;;;;;;;;;;;;;;;4938468;28;19918;-67
2023/10/25 02:22:04;;;;;;;;;;;;;;;;;;4946538;28;19914;-68
2023/10/25 02:24:30;;;;;;;;;;;;;;;;;;4938847;28;19968;-68
2023/10/25 02:26:56;;;;;;;;;;;;;;;;;;4944936;28;19914;-67
2023/10/25 02:29:22;;;;;;;;;;;;;;;;;;4944017;28;19940;-69
2023/10/25 02:31:48;;;;;;;;;;;;;;;;;;4940546;28;19913;-69
2023/10/25 02:34:14;;;;;;;;;;;;;;;;;;4931649;28;19996;-68
2023/10/25 02:36:40;;;;;;;;;;;;;;;;;;4926932;28;19914;-68
2023/10/25 02:39:06;;;;;;;;;;;;;;;;;;4942804;28;20005;-68
2023/10/25 02:41:32;;;;;;;;;;;;;;;;;;4942508;28;19922;-68
2023/10/25 02:43:58;;;;;;;;;;;;;;;;;;4943679;28;20612;-70
2023/10/25 02:46:24;;;;;;;;;;;;;;;;;;4942326;28;20146;-68
2023/10/25 02:48:51;;;;;;;;;;;;;;;;;;4941850;28;20657;-69
2023/10/25 02:51:17;;;;;;;;;;;;;;;;;;4944551;28;19921;-69
2023/10/25 02:53:43;;;;;;;;;;;;;;;;;;4939506;28;19913;-68
2023/10/25 02:56:09;;;;;;;;;;;;;;;;;;4943981;28;19910;-68
2023/10/25 02:58:35;;;;;;;;;;;;;;;;;;4937337;28;19991;-66
2023/10/25 03:01:01;;;;;;;;;;;;;;;;;;4926001;28;19933;-67
2023/10/25 03:03:27;;;;;;;;;;;;;;;;;;4922774;28;19925;-67
2023/10/25 03:05:53;;;;;;;;;;;;;;;;;;4942019;28;19913;-67
2023/10/25 03:08:19;;;;;;;;;;;;;;;;;;4924864;28;20163;-67
2023/10/25 03:10:45;;;;;;;;;;;;;;;;;;4925986;28;22435;-67
2023/10/25 03:13:11;;;;;;;;;;;;;;;;;;4940037;28;20146;-67
2023/10/25 03:15:37;;;;;;;;;;;;;;;;;;4941353;28;20023;-67
2023/10/25 03:18:03;;;;;;;;;;;;;;;;;;4946089;28;19910;-67
2023/10/25 03:20:29;;;;;;;;;;;;;;;;;;4936831;28;20168;-67
2023/10/25 03:22:55;;;;;;;;;;;;;;;;;;4925692;28;19910;-67
2023/10/25 03:25:21;;;;;;;;;;;;;;;;;;4944079;28;20396;-67
2023/10/25 03:27:47;;;;;;;;;;;;;;;;;;4938924;28;19922;-67
2023/10/25 03:30:13;;;;;;;;;;;;;;;;;;4943292;28;19922;-67
2023/10/25 03:32:39;;;;;;;;;;;;;;;;;;4938692;28;19910;-68
2023/10/25 03:35:05;;;;;;;;;;;;;;;;;;4941165;28;19918;-66
2023/10/25 03:37:31;;;;;;;;;;;;;;;;;;4939341;28;20356;-67
2023/10/25 03:39:57;;;;;;;;;;;;;;;;;;4943381;28;20008;-68
2023/10/25 03:42:23;;;;;;;;;;;;;;;;;;4943657;28;19953;-68
2023/10/25 03:44:49;;;;;;;;;;;;;;;;;;4937588;28;20134;-68
2023/10/25 03:47:15;;;;;;;;;;;;;;;;;;4942654;28;19980;-70
2023/10/25 03:49:41;;;;;;;;;;;;;;;;;;4937020;28;20396;-68
2023/10/25 03:52:07;;;;;;;;;;;;;;;;;;4926269;28;19921;-68
2023/10/25 03:54:33;;;;;;;;;;;;;;;;;;4936514;28;19914;-68
2023/10/25 03:56:59;;;;;;;;;;;;;;;;;;4943193;28;19914;-68
2023/10/25 03:59:25;;;;;;;;;;;;;;;;;;4925470;28;20171;-68
2023/10/25 04:01:51;;;;;;;;;;;;;;;;;;4927474;28;19925;-68
2023/10/25 04:04:17;;;;;;;;;;;;;;;;;;4942364;28;20462;-68
2023/10/25 04:06:43;;;;;;;;;;;;;;;;;;4939362;28;20439;-68
2023/10/25 04:09:09;;;;;;;;;;;;;;;;;;4942251;28;19964;-68
2023/10/25 04:11:35;;;;;;;;;;;;;;;;;;4936139;28;19921;-69
2023/10/25 04:14:01;;;;;;;;;;;;;;;;;;4927039;28;20237;-67
2023/10/25 04:16:27;;;;;;;;;;;;;;;;;;4918113;28;19921;-67
2023/10/25 04:18:53;;;;;;;;;;;;;;;;;;4942045;28;20233;-67
2023/10/25 04:21:19;;;;;;;;;;;;;;;;;;4939907;28;20376;-67
2023/10/25 04:23:45;;;;;;;;;;;;;;;;;;4937509;28;19925;-67
2023/10/25 04:26:11;;;;;;;;;;;;;;;;;;4940590;28;19921;-67
2023/10/25 04:28:37;;;;;;;;;;;;;;;;;;4922296;28;20403;-67
2023/10/25 04:31:03;;;;;;;;;;;;;;;;;;4940614;28;20388;-67
2023/10/25 04:33:29;;;;;;;;;;;;;;;;;;4938586;28;19963;-67
2023/10/25 04:35:55;;;;;;;;;;;;;;;;;;4943838;28;19924;-69
2023/10/25 04:38:23;;;;;;;;;;;;;;;;;;4940450;28;19960;-69
2023/10/25 04:40:49;;;;;;;;;;;;;;;;;;4922903;28;20259;-69
2023/10/25 04:43:15;;;;;;;;;;;;;;;;;;4941918;28;20033;-69
2023/10/25 04:45:41;;;;;;;;;;;;;;;;;;4922796;28;20180;-69
2023/10/25 04:48:07;;;;;;;;;;;;;;;;;;4942371;28;19922;-67
2023/10/25 04:50:34;;;;;;;;;;;;;;;;;;4936546;28;20716;-68
2023/10/25 04:53:02;;;;;;;;;;;;;;;;;;4927644;28;19981;-67
2023/10/25 04:55:29;;;;;;;;;;;;;;;;;;4937200;28;20017;-68
2023/10/25 04:57:55;;;;;;;;;;;;;;;;;;4925777;28;20329;-68
2023/10/25 05:00:21;;;;;;;;;;;;;;;;;;4922545;28;19933;-68
2023/10/25 05:02:47;;;;;;;;;;;;;;;;;;4940696;28;19976;-68
2023/10/25 05:05:13;;;;;;;;;;;;;;;;;;4927658;28;20155;-68
2023/10/25 05:07:39;;;;;;;;;;;;;;;;;;4940084;28;20032;-68
2023/10/25 05:10:05;;;;;;;;;;;;;;;;;;4944969;28;19914;-68
2023/10/25 05:12:31;;;;;;;;;;;;;;;;;;4944031;28;19918;-68
2023/10/25 05:14:57;;;;;;;;;;;;;;;;;;4945967;28;19914;-68
2023/10/25 05:17:23;;;;;;;;;;;;;;;;;;4946007;28;20359;-68
2023/10/25 05:19:49;;;;;;;;;;;;;;;;;;4941589;28;20251;-68
2023/10/25 05:22:15;;;;;;;;;;;;;;;;;;4928298;28;20235;-69
2023/10/25 05:24:41;;;;;;;;;;;;;;;;;;4942839;28;19968;-70
2023/10/25 05:27:06;;;;;;;;;;;;;;;;;;4941923;28;19956;-68
2023/10/25 05:29:32;;;;;;;;;;;;;;;;;;4923364;28;20242;-68
2023/10/25 05:31:58;;;;;;;;;;;;;;;;;;4946777;28;19921;-68
2023/10/25 05:34:24;;;;;;;;;;;;;;;;;;4943107;28;19918;-68
2023/10/25 05:36:50;;;;;;;;;;;;;;;;;;4943587;28;20388;-68
2023/10/25 05:39:16;;;;;;;;;;;;;;;;;;4945350;28;19964;-68
2023/10/25 05:41:42;;;;;;;;;;;;;;;;;;4928350;28;19917;-69
2023/10/25 05:44:08;;;;;;;;;;;;;;;;;;4946016;28;19949;-68
2023/10/25 05:46:34;;;;;;;;;;;;;;;;;;4941980;28;20685;-68
2023/10/25 05:49:00;;;;;;;;;;;;;;;;;;4930370;28;20405;-68
2023/10/25 05:51:26;;;;;;;;;;;;;;;;;;4947160;28;20379;-68
2023/10/25 05:53:52;;;;;;;;;;;;;;;;;;4929511;28;20396;-68
2023/10/25 05:56:18;;;;;;;;;;;;;;;;;;4945964;28;19968;-68
2023/10/25 05:58:46;;;;;;;;;;;;;;;;;;4939717;28;19917;-68
2023/10/25 06:01:11;;;;;;;;;;;;;;;;;;4947085;28;20068;-69
2023/10/25 06:03:39;;;;;;;;;;;;;;;;;;4927492;28;19914;-69
2023/10/25 06:06:05;;;;;;;;;;;;;;;;;;4944413;28;20097;-69
2023/10/25 06:08:31;;;;;;;;;;;;;;;;;;4941939;28;20079;-69
2023/10/25 06:10:57;;;;;;;;;;;;;;;;;;4943782;28;19922;-68
2023/10/25 06:13:23;;;;;;;;;;;;;;;;;;4946477;28;19953;-68
2023/10/25 06:15:49;;;;;;;;;;;;;;;;;;4940736;28;20494;-68
2023/10/25 06:18:15;;;;;;;;;;;;;;;;;;4944743;28;19913;-69
2023/10/25 06:20:41;;;;;;;;;;;;;;;;;;4927026;28;19914;-68
2023/10/25 06:23:07;;;;;;;;;;;;;;;;;;4941103;28;20281;-68
2023/10/25 06:25:33;;;;;;;;;;;;;;;;;;4940558;28;19925;-68
2023/10/25 06:27:59;;;;;;;;;;;;;;;;;;4947325;28;20109;-68
2023/10/25 06:30:26;;;;;;;;;;;;;;;;;;4945077;28;20069;-68
2023/10/25 06:32:53;;;;;;;;;;;;;;;;;;4949261;28;19960;-68
2023/10/25 06:35:19;;;;;;;;;;;;;;;;;;4947121;28;20425;-68
2023/10/25 06:37:45;;;;;;;;;;;;;;;;;;4924466;28;22835;-69
2023/10/25 06:40:11;;;;;;;;;;;;;;;;;;4947559;28;20032;-69
2023/10/25 06:42:37;;;;;;;;;;;;;;;;;;4943697;28;19925;-68
2023/10/25 06:45:03;;;;;;;;;;;;;;;;;;4952065;28;19940;-70
2023/10/25 06:47:29;;;;;;;;;;;;;;;;;;4942679;28;19998;-69
2023/10/25 06:49:55;;;;;;;;;;;;;;;;;;4927022;28;19956;-68
2023/10/25 06:52:21;;;;;;;;;;;;;;;;;;4944395;28;20023;-69
2023/10/25 06:54:47;;;;;;;;;;;;;;;;;;4940128;28;20411;-68
2023/10/25 06:57:13;;;;;;;;;;;;;;;;;;4944210;28;19949;-68
2023/10/25 06:59:39;;;;;;;;;;;;;;;;;;4940277;28;20341;-68
2023/10/25 07:02:05;;;;;;;;;;;;;;;;;;4932309;28;20044;-68
2023/10/25 07:04:32;;;;;;;;;;;;;;;;;;4941010;28;20049;-68
2023/10/25 07:06:58;;;;;;;;;;;;;;;;;;4943272;28;20361;-68
2023/10/25 07:09:24;;;;;;;;;;;;;;;;;;4945158;28;19918;-68
2023/10/25 07:11:50;;;;;;;;;;;;;;;;;;4942816;28;19929;-68
2023/10/25 07:14:16;;;;;;;;;;;;;;;;;;4945215;28;20343;-68
2023/10/25 07:16:42;;;;;;;;;;;;;;;;;;4943670;28;20029;-69
2023/10/25 07:19:08;;;;;;;;;;;;;;;;;;4946497;28;19937;-69
2023/10/25 07:21:34;;;;;;;;;;;;;;;;;;4945144;28;20004;-68
2023/10/25 07:24:00;;;;;;;;;;;;;;;;;;4947312;28;19921;-69
2023/10/25 07:26:26;;;;;;;;;;;;;;;;;;4941762;28;19921;-68
2023/10/25 07:28:52;;;;;;;;;;;;;;;;;;4929140;28;19973;-69
2023/10/25 07:31:18;;;;;;;;;;;;;;;;;;4945694;28;19932;-67
2023/10/25 07:33:44;;;;;;;;;;;;;;;;;;4926886;28;19945;-67
2023/10/25 07:36:10;;;;;;;;;;;;;;;;;;4950530;28;19914;-67
2023/10/25 07:38:36;;;;;;;;;;;;;;;;;;4922993;28;20004;-67
2023/10/25 07:41:02;;;;;;;;;;;;;;;;;;4948770;28;20251;-68
2023/10/25 07:43:30;;;;;;;;;;;;;;;;;;4943212;28;19921;-69
2023/10/25 07:45:56;;;;;;;;;;;;;;;;;;4943857;28;20001;-68
2023/10/25 07:48:22;;;;;;;;;;;;;;;;;;4944526;28;20023;-68
2023/10/25 07:50:47;;;;;;;;;;;;;;;;;;4941842;28;19914;-67
2023/10/25 07:53:13;;;;;;;;;;;;;;;;;;4944837;28;19918;-67
2023/10/25 07:55:39;;;;;;;;;;;;;;;;;;4943266;28;20447;-68
2023/10/25 07:58:05;;;;;;;;;;;;;;;;;;4945075;28;20374;-68
2023/10/25 08:00:31;;;;;;;;;;;;;;;;;;4923379;28;19969;-67
2023/10/25 08:02:57;;;;;;;;;;;;;;;;;;4925199;28;19922;-67
2023/10/25 08:05:23;;;;;;;;;;;;;;;;;;4942695;28;19924;-68
2023/10/25 08:07:49;;;;;;;;;;;;;;;;;;4936767;28;20775;-67
2023/10/25 08:10:15;;;;;;;;;;;;;;;;;;4938965;28;19922;-67
2023/10/25 08:12:41;;;;;;;;;;;;;;;;;;4938387;28;19941;-68
2023/10/25 08:15:07;;;;;;;;;;;;;;;;;;4938455;28;20482;-68
2023/10/25 08:17:33;;;;;;;;;;;;;;;;;;4923779;28;20016;-67
2023/10/25 08:19:59;;;;;;;;;;;;;;;;;;4925021;28;19910;-67
2023/10/25 08:22:25;;;;;;;;;;;;;;;;;;4940118;28;20308;-70
2023/10/25 08:24:51;;;;;;;;;;;;;;;;;;4940551;28;20012;-67
2023/10/25 08:27:17;;;;;;;;;;;;;;;;;;4924508;28;20368;-68
2023/10/25 08:29:43;;;;;;;;;;;;;;;;;;4919751;28;19918;-68
2023/10/25 08:32:09;;;;;;;;;;;;;;;;;;4938917;28;19924;-68
2023/10/25 08:34:35;;;;;;;;;;;;;;;;;;4937017;28;20004;-68
2023/10/25 08:37:01;;;;;;;;;;;;;;;;;;4940799;28;20462;-67
2023/10/25 08:39:27;;;;;;;;;;;;;;;;;;4942989;28;19918;-67
2023/10/25 08:41:53;;;;;;;;;;;;;;;;;;4941464;28;20356;-68
2023/10/25 08:44:19;;;;;;;;;;;;;;;;;;4942407;28;20301;-68
2023/10/25 08:46:45;;;;;;;;;;;;;;;;;;4936309;28;20466;-68
2023/10/25 08:49:11;;;;;;;;;;;;;;;;;;4940213;28;20026;-68
2023/10/25 08:51:37;;;;;;;;;;;;;;;;;;4940397;28;20471;-68
2023/10/25 08:54:03;;;;;;;;;;;;;;;;;;4928650;28;20514;-68
2023/10/25 08:56:29;;;;;;;;;;;;;;;;;;4921233;28;19914;-68
2023/10/25 08:58:55;;;;;;;;;;;;;;;;;;4944403;28;19956;-68
2023/10/25 09:01:21;;;;;;;;;;;;;;;;;;4940495;28;19925;-68
2023/10/25 09:03:47;;;;;;;;;;;;;;;;;;4940767;28;19918;-68
2023/10/25 09:06:13;;;;;;;;;;;;;;;;;;4929967;28;19914;-69
2023/10/25 09:08:39;;;;;;;;;;;;;;;;;;4929751;28;19918;-68
2023/10/25 09:11:05;;;;;;;;;;;;;;;;;;4943770;28;20000;-68
2023/10/25 09:13:31;;;;;;;;;;;;;;;;;;4940262;28;20402;-68
2023/10/25 09:15:57;;;;;;;;;;;;;;;;;;4943708;28;19914;-68
2023/10/25 09:18:23;;;;;;;;;;;;;;;;;;4932481;28;20310;-68
2023/10/25 09:20:49;;;;;;;;;;;;;;;;;;4942882;28;20633;-68
2023/10/25 09:23:15;;;;;;;;;;;;;;;;;;4941781;28;19914;-68
2023/10/25 09:25:41;;;;;;;;;;;;;;;;;;4924585;28;19914;-67
2023/10/25 09:28:07;;;;;;;;;;;;;;;;;;4928006;28;20025;-68
2023/10/25 09:30:33;;;;;;;;;;;;;;;;;;4941723;28;20235;-68
2023/10/25 09:32:59;;;;;;;;;;;;;;;;;;4927835;28;20056;-68
2023/10/25 09:35:25;;;;;;;;;;;;;;;;;;4942228;28;19993;-68
2023/10/25 09:37:51;;;;;;;;;;;;;;;;;;4927259;28;19956;-68
2023/10/25 09:40:17;;;;;;;;;;;;;;;;;;4944108;28;20376;-68
2023/10/25 09:42:45;;;;;;;;;;;;;;;;;;4943568;28;19913;-69
2023/10/25 09:45:11;;;;;;;;;;;;;;;;;;4942912;28;20379;-69
2023/10/25 09:47:38;;;;;;;;;;;;;;;;;;4940963;28;19915;-69
2023/10/25 09:50:04;;;;;;;;;;;;;;;;;;4941127;28;19978;-70
2023/10/25 09:52:30;;;;;;;;;;;;;;;;;;4942295;28;19918;-70
2023/10/25 09:54:56;;;;;;;;;;;;;;;;;;4925800;28;19914;-67
2023/10/25 09:57:22;;;;;;;;;;;;;;;;;;4941730;28;20255;-68
2023/10/25 09:59:51;;;;;;;;;;;;;;;;;;4940562;28;20167;-68
2023/10/25 10:02:17;;;;;;;;;;;;;;;;;;4928857;28;20372;-68
2023/10/25 10:04:44;;;;;;;;;;;;;;;;;;4938700;28;19982;-68
2023/10/25 10:07:10;;;;;;;;;;;;;;;;;;4939183;28;20601;-70
2023/10/25 10:09:36;;;;;;;;;;;;;;;;;;4935282;28;20231;-68
2023/10/25 10:12:01;;;;;;;;;;;;;;;;;;4928383;28;19914;-70
2023/10/25 10:14:28;;;;;;;;;;;;;;;;;;4936240;28;20279;-68
2023/10/25 10:16:53;;;;;;;;;;;;;;;;;;4946253;28;19917;-68
2023/10/25 10:19:19;;;;;;;;;;;;;;;;;;4943248;28;19914;-68
2023/10/25 10:21:45;;;;;;;;;;;;;;;;;;4937903;28;19950;-68
2023/10/25 10:24:11;;;;;;;;;;;;;;;;;;4942096;28;19914;-68
2023/10/25 10:26:37;;;;;;;;;;;;;;;;;;4935919;28;20130;-68
2023/10/25 10:29:04;;;;;;;;;;;;;;;;;;4940403;28;19917;-68
2023/10/25 10:31:30;;;;;;;;;;;;;;;;;;4936727;28;19968;-68
2023/10/25 10:33:55;;;;;;;;;;;;;;;;;;4942722;28;20000;-69
2023/10/25 10:36:22;;;;;;;;;;;;;;;;;;4927041;28;19921;-68
2023/10/25 10:38:48;;;;;;;;;;;;;;;;;;4939639;28;19910;-68
2023/10/25 10:41:14;;;;;;;;;;;;;;;;;;4939992;28;20998;-68
2023/10/25 10:43:40;;;;;;;;;;;;;;;;;;4937658;28;19924;-68
2023/10/25 10:46:06;;;;;;;;;;;;;;;;;;4926466;28;19918;-68
2023/10/25 10:48:32;;;;;;;;;;;;;;;;;;4936249;28;19917;-68
2023/10/25 10:50:59;;;;;;;;;;;;;;;;;;4944714;28;19922;-68
2023/10/25 10:53:24;;;;;;;;;;;;;;;;;;4940319;28;20278;-68
2023/10/25 10:55:50;;;;;;;;;;;;;;;;;;4921519;28;19914;-68
2023/10/25 10:58:17;;;;;;;;;;;;;;;;;;4941379;28;19991;-68
2023/10/25 11:00:44;;;;;;;;;;;;;;;;;;4918790;28;19921;-69
2023/10/25 11:03:10;;;;;;;;;;;;;;;;;;4939736;28;20375;-69
2023/10/25 11:05:36;;;;;;;;;;;;;;;;;;4938588;28;20316;-68
2023/10/25 11:08:02;;;;;;;;;;;;;;;;;;4924643;28;19928;-68
2023/10/25 11:10:28;;;;;;;;;;;;;;;;;;4939022;28;19921;-68
2023/10/25 11:12:58;;;;;;;;;;;;;;;;;;4940009;28;20032;-68
2023/10/25 11:15:25;;;;;;;;;;;;;;;;;;4941019;28;19975;-68
2023/10/25 11:17:52;;;;;;;;;;;;;;;;;;4941829;28;19917;-68
2023/10/25 11:20:18;;;;;;;;;;;;;;;;;;4942969;28;19979;-68
2023/10/25 11:22:44;;;;;;;;;;;;;;;;;;4940104;28;19918;-68
2023/10/25 11:25:10;;;;;;;;;;;;;;;;;;4938974;28;20380;-68
2023/10/25 11:27:36;;;;;;;;;;;;;;;;;;4938575;28;20455;-68
2023/10/25 11:30:02;;;;;;;;;;;;;;;;;;4943306;28;20331;-68
2023/10/25 11:32:28;;;;;;;;;;;;;;;;;;4936021;28;20266;-68
2023/10/25 11:34:56;;;;;;;;;;;;;;;;;;4943007;28;20404;-68
2023/10/25 11:37:22;;;;;;;;;;;;;;;;;;4941155;28;19988;-68
2023/10/25 11:39:48;;;;;;;;;;;;;;;;;;4934915;28;19922;-68
2023/10/25 11:42:14;;;;;;;;;;;;;;;;;;4940355;28;19947;-68
2023/10/25 11:44:40;;;;;;;;;;;;;;;;;;4939890;28;19947;-69
2023/10/25 11:47:06;;;;;;;;;;;;;;;;;;4941300;28;19922;-69
2023/10/25 11:49:31;;;;;;;;;;;;;;;;;;4922580;28;19917;-68
2023/10/25 11:51:58;;;;;;;;;;;;;;;;;;4944977;28;19944;-68
2023/10/25 11:54:24;;;;;;;;;;;;;;;;;;4941856;28;19925;-68
2023/10/25 11:56:50;;;;;;;;;;;;;;;;;;4940259;28;20216;-68
2023/10/25 11:59:16;;;;;;;;;;;;;;;;;;4938137;28;20425;-68
2023/10/25 12:01:42;;;;;;;;;;;;;;;;;;4937430;28;20040;-67
2023/10/25 12:04:09;;;;;;;;;;;;;;;;;;4925961;28;20197;-68
2023/10/25 12:06:35;;;;;;;;;;;;;;;;;;4938197;28;19974;-68
2023/10/25 12:09:01;;;;;;;;;;;;;;;;;;4923381;28;19917;-68
2023/10/25 12:11:27;;;;;;;;;;;;;;;;;;4939282;28;20644;-68
2023/10/25 12:13:53;;;;;;;;;;;;;;;;;;4937064;28;20265;-68
2023/10/25 12:16:19;;;;;;;;;;;;;;;;;;4942797;28;20344;-72
2023/10/25 12:18:45;;;;;;;;;;;;;;;;;;4922179;28;20303;-70
2023/10/25 12:21:11;;;;;;;;;;;;;;;;;;4938974;28;19918;-71
2023/10/25 12:23:37;;;;;;;;;;;;;;;;;;4938859;28;20309;-70
2023/10/25 12:26:03;;;;;;;;;;;;;;;;;;4928768;28;20188;-68
2023/10/25 12:28:29;;;;;;;;;;;;;;;;;;4927414;28;19918;-68
2023/10/25 12:30:55;;;;;;;;;;;;;;;;;;4945421;28;20135;-69
2023/10/25 12:33:21;;;;;;;;;;;;;;;;;;4944850;28;20368;-69
2023/10/25 12:35:48;;;;;;;;;;;;;;;;;;4940141;28;21059;-70
2023/10/25 12:38:14;;;;;;;;;;;;;;;;;;4939867;28;19941;-69
2023/10/25 12:40:40;;;;;;;;;;;;;;;;;;4938725;28;20318;-70
2023/10/25 12:43:06;;;;;;;;;;;;;;;;;;4927871;28;19921;-70
2023/10/25 12:45:32;;;;;;;;;;;;;;;;;;4925261;28;20012;-70
2023/10/25 12:47:58;;;;;;;;;;;;;;;;;;4921233;28;20384;-69
2023/10/25 12:50:24;;;;;;;;;;;;;;;;;;4930700;28;19925;-70
2023/10/25 12:52:50;;;;;;;;;;;;;;;;;;4944025;28;20148;-70
2023/10/25 12:55:16;;;;;;;;;;;;;;;;;;4950382;28;19913;-69
2023/10/25 12:57:42;;;;;;;;;;;;;;;;;;4944195;28;20327;-69
2023/10/25 13:00:11;;;;;;;;;;;;;;;;;;4951670;28;19952;-69
2023/10/25 13:02:37;;;;;;;;;;;;;;;;;;4942080;28;20824;-70
2023/10/25 13:05:04;;;;;;;;;;;;;;;;;;4952138;28;19914;-70
2023/10/25 13:07:30;;;;;;;;;;;;;;;;;;4944255;28;19913;-70
2023/10/25 13:09:56;;;;;;;;;;;;;;;;;;4933851;28;19964;-69
2023/10/25 13:12:22;;;;;;;;;;;;;;;;;;4948740;28;20012;-70
2023/10/25 13:14:49;;;;;;;;;;;;;;;;;;4930696;28;19914;-69
2023/10/25 13:17:15;;;;;;;;;;;;;;;;;;4932426;28;19949;-69
2023/10/25 13:19:41;;;;;;;;;;;;;;;;;;4944781;28;19972;-69
2023/10/25 13:22:07;;;;;;;;;;;;;;;;;;4931743;28;19926;-69
2023/10/25 13:24:33;;;;;;;;;;;;;;;;;;4908066;28;19917;-70
2023/10/25 13:26:59;;;;;;;;;;;;;;;;;;4908081;28;20715;-70
2023/10/25 13:29:26;;;;;;;;;;;;;;;;;;4911388;28;20388;-69
2023/10/25 13:31:52;;;;;;;;;;;;;;;;;;4910275;28;20053;-67
2023/10/25 13:34:18;;;;;;;;;;;;;;;;;;4909485;28;19918;-69
2023/10/25 13:36:44;;;;;;;;;;;;;;;;;;4894268;28;20426;-69
2023/10/25 13:39:11;;;;;;;;;;;;;;;;;;4893773;28;20369;-69
2023/10/25 13:41:37;;;;;;;;;;;;;;;;;;4907573;28;19918;-70
2023/10/25 13:44:03;;;;;;;;;;;;;;;;;;4910205;28;20368;-69
2023/10/25 13:46:29;;;;;;;;;;;;;;;;;;4889872;28;19957;-67
2023/10/25 13:48:55;;;;;;;;;;;;;;;;;;4912352;28;19925;-69
2023/10/25 13:51:21;;;;;;;;;;;;;;;;;;4909103;28;20316;-67
2023/10/25 13:53:47;;;;;;;;;;;;;;;;;;4906659;28;20015;-68
2023/10/25 13:56:15;;;;;;;;;;;;;;;;;;4910758;28;19997;-69
2023/10/25 13:58:41;;;;;;;;;;;;;;;;;;4891930;28;20144;-68
2023/10/25 14:01:07;;;;;;;;;;;;;;;;;;4950259;28;19922;-68
2023/10/25 14:03:33;;;;;;;;;;;;;;;;;;4943940;28;19938;-68
2023/10/25 14:06:04;;;;;;;;;;;;;;;;;;4949875;28;19937;-69
2023/10/25 14:08:30;;;;;;;;;;;;;;;;;;4923861;28;20151;-68
2023/10/25 14:10:56;;;;;;;;;;;;;;;;;;4949318;28;19913;-69
2023/10/25 14:13:22;;;;;;;;;;;;;;;;;;4947068;28;19921;-69
2023/10/25 14:15:48;;;;;;;;;;;;;;;;;;4927534;28;20174;-69
2023/10/25 14:18:14;;;;;;;;;;;;;;;;;;4946856;28;19920;-69
2023/10/25 14:20:40;;;;;;;;;;;;;;;;;;4931922;28;20075;-69
2023/10/25 14:23:05;;;;;;;;;;;;;;;;;;4946016;28;19914;-69
2023/10/25 14:25:31;;;;;;;;;;;;;;;;;;4929175;28;19989;-69
2023/10/25 14:27:57;;;;;;;;;;;;;;;;;;4948011;28;20299;-68
2023/10/25 14:30:23;;;;;;;;;;;;;;;;;;4946241;28;20432;-68
2023/10/25 14:32:49;;;;;;;;;;;;;;;;;;4927516;28;20061;-68
2023/10/25 14:35:15;;;;;;;;;;;;;;;;;;4943181;28;19914;-68
2023/10/25 14:37:41;;;;;;;;;;;;;;;;;;4944719;28;19914;-69
2023/10/25 14:40:07;;;;;;;;;;;;;;;;;;4945976;28;19910;-67
2023/10/25 14:42:33;;;;;;;;;;;;;;;;;;4936593;28;20397;-67
2023/10/25 14:44:59;;;;;;;;;;;;;;;;;;4947359;28;19914;-67
2023/10/25 14:47:26;;;;;;;;;;;;;;;;;;4945452;28;19941;-67
2023/10/25 14:49:52;;;;;;;;;;;;;;;;;;4944895;28;20270;-67
2023/10/25 14:52:19;;;;;;;;;;;;;;;;;;4947791;28;19918;-67
2023/10/25 14:54:46;;;;;;;;;;;;;;;;;;4942501;28;19925;-66
2023/10/25 14:57:12;;;;;;;;;;;;;;;;;;4930579;28;19913;-66
2023/10/25 14:59:38;;;;;;;;;;;;;;;;;;4928041;28;20257;-66
2023/10/25 15:02:04;;;;;;;;;;;;;;;;;;4945385;28;20138;-67
2023/10/25 15:04:30;;;;;;;;;;;;;;;;;;4941557;28;20009;-67
2023/10/25 15:06:56;;;;;;;;;;;;;;;;;;4941697;28;20333;-67
2023/10/25 15:09:22;;;;;;;;;;;;;;;;;;4939936;28;19953;-67
2023/10/25 15:11:48;;;;;;;;;;;;;;;;;;4939772;28;22444;-66
2023/10/25 15:14:14;;;;;;;;;;;;;;;;;;4940953;28;20564;-67
2023/10/25 15:16:42;;;;;;;;;;;;;;;;;;4940143;28;19925;-67
2023/10/25 15:19:08;;;;;;;;;;;;;;;;;;4947885;28;19976;-67
2023/10/25 15:21:34;;;;;;;;;;;;;;;;;;4946191;28;19913;-66
2023/10/25 15:24:00;;;;;;;;;;;;;;;;;;4953309;28;19913;-67
2023/10/25 15:26:26;;;;;;;;;;;;;;;;;;4930891;28;19952;-67
2023/10/25 15:28:52;;;;;;;;;;;;;;;;;;4942153;28;20307;-66
2023/10/25 15:31:18;;;;;;;;;;;;;;;;;;4944631;28;19922;-66
2023/10/25 15:33:44;;;;;;;;;;;;;;;;;;4945908;28;19976;-67
2023/10/25 15:36:10;;;;;;;;;;;;;;;;;;4926683;28;20156;-67
2023/10/25 15:38:36;;;;;;;;;;;;;;;;;;4928034;28;19914;-67
2023/10/25 15:41:02;;;;;;;;;;;;;;;;;;4940949;28;19952;-67
2023/10/25 15:43:28;;;;;;;;;;;;;;;;;;4944177;28;20017;-66
2023/10/25 15:45:54;;;;;;;;;;;;;;;;;;4944865;28;19925;-66
2023/10/25 15:48:20;;;;;;;;;;;;;;;;;;4944922;28;19918;-66
2023/10/25 15:50:46;;;;;;;;;;;;;;;;;;4942427;28;19918;-66
2023/10/25 15:53:12;;;;;;;;;;;;;;;;;;4947870;28;20304;-66
2023/10/25 15:55:38;;;;;;;;;;;;;;;;;;4940349;28;20035;-66
2023/10/25 15:58:04;;;;;;;;;;;;;;;;;;4943690;28;19977;-66
2023/10/25 16:00:30;;;;;;;;;;;;;;;;;;4941253;28;19929;-66
2023/10/25 16:02:56;;;;;;;;;;;;;;;;;;4945286;28;19918;-66
2023/10/25 16:05:22;;;;;;;;;;;;;;;;;;4945804;28;19913;-66
2023/10/25 16:07:48;;;;;;;;;;;;;;;;;;4941144;28;19915;-66
2023/10/25 16:10:14;;;;;;;;;;;;;;;;;;4942556;28;20029;-66
2023/10/25 16:12:40;;;;;;;;;;;;;;;;;;4938264;28;19925;-66
2023/10/25 16:15:05;;;;;;;;;;;;;;;;;;4941785;28;19914;-66
2023/10/25 16:17:31;;;;;;;;;;;;;;;;;;4942230;28;20053;-66
2023/10/25 16:19:57;;;;;;;;;;;;;;;;;;4943530;28;19914;-66
2023/10/25 16:22:23;;;;;;;;;;;;;;;;;;4940896;28;20440;-66
2023/10/25 16:24:49;;;;;;;;;;;;;;;;;;4944435;28;19925;-66
2023/10/25 16:27:16;;;;;;;;;;;;;;;;;;4925497;28;19914;-66
2023/10/25 16:29:42;;;;;;;;;;;;;;;;;;4943186;28;19917;-66
2023/10/25 16:32:08;;;;;;;;;;;;;;;;;;4928909;28;19957;-66
2023/10/25 16:34:34;;;;;;;;;;;;;;;;;;4941813;28;20028;-64
2023/10/25 16:37:02;;;;;;;;;;;;;;;;;;4942592;28;20223;-67